Time;durP1;ratioP1;P1;durP2;ratioP2;P2;SDS_P1;SDS_P2;PMS_P1;PMS_P2;Temp;Humidity;BMP_temperature;BMP_pressure;BME280_temperature;BME280_humidity;BME280_pressure;Samples;Min_cycle;Max_cycle;Signal;HPM_P1;HPM_P2
2023/07/03 04:00:32;;;;;;;5.97;3.50;;;16.60;97.30;;;;;;6017866;23;21259;-90
2023/07/03 04:03:00;;;;;;;7.70;3.17;;;16.60;97.30;;;;;;4951403;28;20506;-91
2023/07/03 04:05:26;;;;;;;7.87;4.50;;;16.70;97.30;;;;;;4968914;28;20534;-89
2023/07/03 04:07:51;;;;;;;5.80;3.97;;;16.70;97.30;;;;;;4955118;29;20458;-88
2023/07/03 04:10:17;;;;;;;5.13;3.30;;;16.80;97.30;;;;;;4954063;29;20226;-89
2023/07/03 04:12:42;;;;;;;11.13;3.30;;;16.80;97.30;;;;;;4934095;28;20211;-89
2023/07/03 04:15:08;;;;;;;7.37;5.77;;;16.80;97.30;;;;;;4963911;23;20765;-67
2023/07/03 04:17:34;;;;;;;7.27;5.20;;;16.80;97.30;;;;;;4951652;28;20194;-67
2023/07/03 04:20:00;;;;;;;6.43;5.07;;;16.80;97.30;;;;;;4950562;28;20554;-67
2023/07/03 04:22:26;;;;;;;14.40;5.27;;;16.90;97.30;;;;;;4946319;28;20879;-67
2023/07/03 04:24:52;;;;;;;3.77;3.53;;;16.90;97.30;;;;;;4945304;28;20280;-67
2023/07/03 04:27:19;;;;;;;6.83;3.27;;;16.90;97.30;;;;;;4939571;29;20432;-67
2023/07/03 04:29:44;;;;;;;11.97;5.23;;;16.90;97.30;;;;;;4948478;29;20430;-66
2023/07/03 04:32:10;;;;;;;12.43;3.93;;;17.00;97.30;;;;;;4943219;28;20448;-66
2023/07/03 04:34:35;;;;;;;4.83;3.13;;;17.00;97.30;;;;;;4933463;28;20555;-67
2023/07/03 04:37:03;;;;;;;5.07;4.77;;;17.00;97.30;;;;;;4951142;28;20187;-67
2023/07/03 04:39:31;;;;;;;4.93;3.37;;;17.00;97.30;;;;;;4944115;28;20179;-67
2023/07/03 04:42:00;;;;;;;7.50;4.37;;;17.10;97.30;;;;;;4943281;28;20839;-67
2023/07/03 04:44:26;;;;;;;6.07;4.00;;;17.10;97.30;;;;;;4933938;28;20446;-67
2023/07/03 04:46:55;;;;;;;12.13;4.17;;;17.10;97.30;;;;;;4939779;29;20749;-67
2023/07/03 04:49:23;;;;;;;5.13;2.30;;;17.10;97.30;;;;;;4947481;28;20433;-67
2023/07/03 04:51:52;;;;;;;4.23;3.17;;;17.10;97.30;;;;;;4944262;28;20451;-69
2023/07/03 04:54:18;;;;;;;6.70;3.87;;;17.10;97.30;;;;;;4943124;28;20466;-67
2023/07/03 04:56:44;;;;;;;10.10;6.30;;;17.10;97.30;;;;;;4941954;29;20452;-67
2023/07/03 04:59:10;;;;;;;7.70;4.53;;;17.10;97.30;;;;;;4933068;29;20431;-67
2023/07/03 05:01:36;;;;;;;4.10;3.20;;;17.10;97.30;;;;;;4933396;28;20454;-67
2023/07/03 05:04:02;;;;;;;4.93;3.00;;;17.10;97.10;;;;;;4931733;29;20416;-70
2023/07/03 05:06:28;;;;;;;9.53;5.60;;;17.10;97.00;;;;;;4941710;29;20240;-69
2023/07/03 05:08:53;;;;;;;9.40;4.77;;;17.20;96.80;;;;;;4944508;29;20400;-67
2023/07/03 05:11:19;;;;;;;29.17;3.63;;;17.20;96.70;;;;;;4928576;29;20515;-67
2023/07/03 05:13:44;;;;;;;9.87;4.67;;;17.30;96.50;;;;;;4931962;29;20596;-67
2023/07/03 05:16:10;;;;;;;3.83;3.40;;;17.40;96.50;;;;;;4940914;28;20230;-68
2023/07/03 05:18:35;;;;;;;11.90;3.70;;;17.50;96.70;;;;;;4929467;28;20191;-67
2023/07/03 05:21:01;;;;;;;15.90;5.60;;;17.50;96.40;;;;;;4929082;29;20676;-68
2023/07/03 05:23:27;;;;;;;26.43;6.07;;;17.60;96.00;;;;;;4939079;28;20706;-68
2023/07/03 05:25:52;;;;;;;3.60;2.57;;;17.70;95.80;;;;;;4939340;28;20234;-68
2023/07/03 05:28:18;;;;;;;6.50;3.93;;;17.80;95.40;;;;;;4939288;28;20617;-67
2023/07/03 05:30:43;;;;;;;4.37;3.70;;;17.80;95.40;;;;;;4947987;28;20203;-67
2023/07/03 05:33:10;;;;;;;6.60;2.70;;;17.90;95.60;;;;;;4942512;28;20216;-67
2023/07/03 05:35:37;;;;;;;6.27;3.23;;;17.90;95.20;;;;;;4942077;28;20176;-66
2023/07/03 05:38:03;;;;;;;10.20;5.20;;;17.90;94.60;;;;;;4945755;28;20427;-69
2023/07/03 05:40:28;;;;;;;4.03;3.03;;;17.90;94.50;;;;;;4932426;29;20440;-67
2023/07/03 05:42:54;;;;;;;5.17;2.83;;;17.90;94.60;;;;;;4937095;29;20666;-67
2023/07/03 05:45:19;;;;;;;9.90;4.00;;;18.00;95.00;;;;;;4938266;28;20300;-67
2023/07/03 05:47:45;;;;;;;4.10;3.20;;;18.10;95.40;;;;;;4947453;29;20302;-66
2023/07/03 05:50:10;;;;;;;3.73;2.70;;;18.10;94.10;;;;;;4949480;28;20183;-72
2023/07/03 05:52:39;;;;;;;1.60;1.50;;;18.10;93.10;;;;;;4929914;29;20187;-68
2023/07/03 05:55:05;;;;;;;1.90;1.80;;;18.10;92.40;;;;;;4942619;29;20588;-67
2023/07/03 05:57:32;;;;;;;4.50;2.47;;;18.00;92.00;;;;;;4932801;29;20744;-68
2023/07/03 05:59:59;;;;;;;4.30;2.90;;;18.00;91.80;;;;;;4942730;28;20808;-68
2023/07/03 06:02:25;;;;;;;6.47;4.00;;;18.10;91.70;;;;;;4933220;28;20291;-67
2023/07/03 06:04:51;;;;;;;5.23;3.10;;;18.10;91.60;;;;;;4942422;28;20514;-68
2023/07/03 06:07:16;;;;;;;4.73;3.20;;;18.10;90.70;;;;;;4952265;28;20191;-66
2023/07/03 06:09:42;;;;;;;3.90;2.90;;;18.10;89.50;;;;;;4941811;28;20799;-67
2023/07/03 06:12:08;;;;;;;26.53;4.27;;;18.10;89.10;;;;;;4950906;28;20203;-67
2023/07/03 06:14:33;;;;;;;6.17;3.00;;;18.20;89.80;;;;;;4941976;28;20285;-67
2023/07/03 06:17:00;;;;;;;2.93;2.73;;;18.20;88.00;;;;;;4941665;28;20261;-73
2023/07/03 06:19:27;;;;;;;4.30;3.07;;;18.30;88.10;;;;;;4949541;28;20199;-68
2023/07/03 06:21:53;;;;;;;8.27;3.00;;;18.30;88.60;;;;;;4941867;28;20446;-67
2023/07/03 06:24:18;;;;;;;2.77;2.57;;;18.40;88.30;;;;;;4939397;28;20427;-66
2023/07/03 06:26:44;;;;;;;3.00;2.77;;;18.50;87.40;;;;;;4942405;28;20426;-68
2023/07/03 06:29:11;;;;;;;2.67;2.50;;;18.50;87.10;;;;;;4944393;28;20187;-68
2023/07/03 06:31:37;;;;;;;3.80;2.30;;;18.60;87.30;;;;;;4939935;28;20204;-70
2023/07/03 06:34:03;;;;;;;6.93;3.63;;;18.70;85.50;;;;;;4943376;29;20849;-70
2023/07/03 06:36:31;;;;;;;2.10;1.77;;;18.80;85.70;;;;;;4930374;29;20284;-69
2023/07/03 06:38:58;;;;;;;5.03;3.30;;;18.80;84.90;;;;;;4941481;28;20431;-69
2023/07/03 06:41:28;;;;;;;4.57;3.40;;;18.80;84.70;;;;;;4942236;28;20742;-67
2023/07/03 06:43:54;;;;;;;4.17;2.47;;;18.80;85.40;;;;;;4936980;28;20437;-67
2023/07/03 06:46:20;;;;;;;4.83;2.30;;;18.80;85.50;;;;;;4940923;28;20438;-69
2023/07/03 06:48:45;;;;;;;6.87;2.70;;;18.80;85.70;;;;;;4931214;28;20432;-68
2023/07/03 06:51:12;;;;;;;4.33;2.03;;;18.90;85.70;;;;;;4930064;29;20827;-72
2023/07/03 06:53:39;;;;;;;6.13;3.13;;;18.90;85.70;;;;;;4940807;29;20729;-69
2023/07/03 06:56:05;;;;;;;5.40;2.80;;;18.90;86.00;;;;;;4940148;28;20426;-68
2023/07/03 06:58:32;;;;;;;4.03;1.80;;;18.90;86.40;;;;;;4940978;28;20519;-66
2023/07/03 07:00:57;;;;;;;1.70;1.60;;;18.90;84.60;;;;;;4945950;28;20436;-68
2023/07/03 07:03:23;;;;;;;5.97;2.80;;;18.90;82.60;;;;;;4937297;28;21070;-69
2023/07/03 07:05:51;;;;;;;2.73;2.53;;;18.80;82.30;;;;;;4941975;28;20194;-69
2023/07/03 07:08:17;;;;;;;2.60;1.97;;;18.70;83.00;;;;;;4941116;28;20434;-69
2023/07/03 07:10:45;;;;;;;6.20;3.13;;;18.70;82.40;;;;;;4945067;28;20439;-73
2023/07/03 07:13:12;;;;;;;15.67;2.43;;;18.80;82.30;;;;;;4935906;28;20213;-73
2023/07/03 07:15:39;;;;;;;7.40;2.40;;;18.80;82.70;;;;;;4931308;28;20471;-69
2023/07/03 07:18:07;;;;;;;3.80;2.30;;;18.90;82.10;;;;;;4947706;28;20430;-69
2023/07/03 07:20:40;;;;;;;2.20;1.83;;;18.90;81.70;;;;;;4937036;28;20847;-75
2023/07/03 07:23:09;;;;;;;1.30;1.20;;;19.00;81.90;;;;;;4939330;28;20442;-80
2023/07/03 07:25:35;;;;;;;4.00;2.27;;;19.10;82.10;;;;;;4934347;29;20803;-68
2023/07/03 07:28:02;;;;;;;4.93;1.50;;;19.20;81.90;;;;;;4934948;28;20519;-74
2023/07/03 07:30:28;;;;;;;1.60;1.53;;;19.20;81.50;;;;;;4942376;28;20283;-79
2023/07/03 07:32:53;;;;;;;5.77;2.70;;;19.30;82.00;;;;;;4948742;28;20467;-68
2023/07/03 07:35:19;;;;;;;7.30;3.00;;;19.30;82.40;;;;;;4945562;28;20667;-73
2023/07/03 07:37:44;;;;;;;9.50;3.63;;;19.20;82.20;;;;;;4940167;28;20183;-67
2023/07/03 07:40:11;;;;;;;21.23;3.30;;;19.20;82.80;;;;;;4952381;28;20644;-72
2023/07/03 07:42:37;;;;;;;1.67;1.57;;;19.20;81.90;;;;;;4932195;29;20211;-68
2023/07/03 07:45:04;;;;;;;2.17;2.03;;;19.20;82.20;;;;;;4937180;28;20619;-68
2023/07/03 07:47:30;;;;;;;3.13;2.30;;;19.30;81.40;;;;;;4935766;28;20420;-70
2023/07/03 07:49:56;;;;;;;2.70;2.03;;;19.40;81.70;;;;;;4943699;29;20493;-68
2023/07/03 07:52:23;;;;;;;4.43;2.40;;;19.40;82.30;;;;;;4945321;28;20942;-67
2023/07/03 07:54:56;;;;;;;14.50;2.50;;;19.40;81.50;;;;;;4938032;28;20210;-68
2023/07/03 07:57:22;;;;;;;3.17;2.07;;;19.40;81.00;;;;;;4932693;29;20438;-68
2023/07/03 07:59:48;;;;;;;2.80;2.20;;;19.50;81.50;;;;;;4937132;29;20798;-73
2023/07/03 08:02:13;;;;;;;2.37;1.80;;;19.60;79.70;;;;;;4924856;29;20461;-67
2023/07/03 08:04:39;;;;;;;29.40;3.00;;;19.50;80.10;;;;;;4940690;29;20187;-67
2023/07/03 08:07:05;;;;;;;3.73;2.17;;;19.60;80.00;;;;;;4940318;29;20187;-69
2023/07/03 08:09:30;;;;;;;2.90;2.50;;;19.60;80.40;;;;;;4932121;29;20198;-70
2023/07/03 08:11:56;;;;;;;3.07;2.27;;;19.70;79.60;;;;;;4941001;28;20443;-73
2023/07/03 08:14:21;;;;;;;4.10;2.13;;;19.70;79.20;;;;;;4939158;29;20253;-65
2023/07/03 08:16:47;;;;;;;1.40;1.30;;;19.80;79.60;;;;;;4951613;28;20257;-68
2023/07/03 08:19:12;;;;;;;15.23;1.93;;;19.80;79.70;;;;;;4943670;29;20226;-67
2023/07/03 08:21:38;;;;;;;1.60;1.27;;;19.90;79.50;;;;;;4935657;28;20868;-67
2023/07/03 08:24:03;;;;;;;5.17;2.23;;;19.90;79.90;;;;;;4942269;28;20735;-68
2023/07/03 08:26:31;;;;;;;3.00;2.23;;;20.00;79.60;;;;;;4945620;28;20174;-78
2023/07/03 08:28:57;;;;;;;2.77;2.53;;;20.00;79.80;;;;;;4952140;28;20179;-73
2023/07/03 08:31:22;;;;;;;2.50;2.37;;;19.90;80.00;;;;;;4938065;28;21201;-68
2023/07/03 08:33:48;;;;;;;2.70;1.53;;;19.80;79.60;;;;;;4939100;28;20216;-68
2023/07/03 08:36:14;;;;;;;3.00;2.30;;;19.80;80.40;;;;;;4945594;29;20182;-69
2023/07/03 08:38:40;;;;;;;3.03;2.53;;;20.00;80.70;;;;;;4935814;28;20222;-72
2023/07/03 08:41:05;;;;;;;3.17;2.97;;;20.10;79.70;;;;;;4939669;29;20476;-70
2023/07/03 08:43:35;;;;;;;4.93;2.33;;;20.20;79.90;;;;;;4932703;28;20192;-74
2023/07/03 08:46:03;;;;;;;6.70;2.60;;;20.30;79.70;;;;;;4943793;29;20278;-71
2023/07/03 08:48:31;;;;;;;1.90;1.33;;;20.30;78.70;;;;;;4935180;28;20494;-73
2023/07/03 08:51:03;;;;;;;2.57;1.93;;;20.20;78.80;;;;;;4947033;28;20862;-70
2023/07/03 08:53:35;;;;;;;3.03;1.93;;;20.20;78.90;;;;;;4940741;28;20490;-68
2023/07/03 08:56:22;;;;;;;5.33;1.40;;;20.20;78.80;;;;;;4943840;29;20454;-68
2023/07/03 08:58:53;;;;;;;3.40;2.90;;;20.30;79.10;;;;;;4944387;28;20940;-68
2023/07/03 09:01:57;;;;;;;2.03;1.90;;;20.30;78.10;;;;;;4942621;28;20443;-68
2023/07/03 09:05:01;;;;;;;2.00;1.70;;;20.30;77.50;;;;;;4951974;28;20432;-72
2023/07/03 09:07:58;;;;;;;2.63;1.37;;;20.30;77.80;;;;;;4951246;29;20423;-73
2023/07/03 09:10:37;;;;;;;5.20;1.93;;;20.50;75.80;;;;;;4938125;29;20462;-75
2023/07/03 09:13:26;;;;;;;1.80;1.67;;;20.60;75.80;;;;;;4936809;28;20474;-81
2023/07/03 09:16:09;;;;;;;5.00;2.23;;;20.70;73.60;;;;;;4943298;28;20463;-79
2023/07/03 09:18:46;;;;;;;2.30;1.73;;;20.80;74.70;;;;;;4942915;28;20419;-74
2023/07/03 09:21:11;;;;;;;4.23;2.23;;;20.90;74.80;;;;;;4932834;28;20443;-76
2023/07/03 09:24:05;;;;;;;4.33;3.50;;;21.00;73.20;;;;;;4942836;28;20514;-68
2023/07/03 09:26:42;;;;;;;3.47;1.53;;;21.10;73.20;;;;;;4951556;28;20200;-73
2023/07/03 09:29:07;;;;;;;3.03;2.37;;;21.10;73.10;;;;;;4935864;29;20501;-68
2023/07/03 09:31:33;;;;;;;1.90;1.80;;;21.20;73.70;;;;;;4942342;28;20451;-69
2023/07/03 09:33:59;;;;;;;1.10;1.10;;;21.20;73.20;;;;;;4933184;28;20600;-66
2023/07/03 09:36:36;;;;;;;3.77;2.50;;;21.20;72.60;;;;;;4937033;29;20180;-71
2023/07/03 09:39:10;;;;;;;14.63;1.80;;;21.30;72.20;;;;;;4932579;29;20179;-69
2023/07/03 09:41:36;;;;;;;5.87;2.30;;;21.30;73.10;;;;;;4937692;28;20489;-69
2023/07/03 09:44:13;;;;;;;1.50;1.33;;;21.30;71.90;;;;;;4938164;28;20420;-70
2023/07/03 09:46:39;;;;;;;2.63;2.10;;;21.40;71.80;;;;;;4936224;28;20588;-69
2023/07/03 09:49:07;;;;;;;1.67;1.53;;;21.50;72.40;;;;;;4932348;28;20446;-73
2023/07/03 09:51:36;;;;;;;0.80;0.80;;;21.60;71.90;;;;;;4936121;28;20435;-70
2023/07/03 09:54:16;;;;;;;1.40;1.40;;;21.80;72.90;;;;;;4938550;28;20495;-68
2023/07/03 09:56:42;;;;;;;4.97;1.97;;;22.00;72.10;;;;;;4934322;28;20428;-72
2023/07/03 09:59:09;;;;;;;3.30;2.40;;;22.10;71.10;;;;;;4938709;29;20416;-69
2023/07/03 10:01:38;;;;;;;1.83;1.30;;;22.20;71.20;;;;;;4947627;29;20533;-68
2023/07/03 10:04:13;;;;;;;3.70;2.23;;;22.30;70.50;;;;;;4938014;28;20416;-71
2023/07/03 10:06:42;;;;;;;1.17;1.13;;;22.30;70.20;;;;;;4940479;28;20951;-78
2023/07/03 10:09:19;;;;;;;11.60;2.53;;;22.40;70.50;;;;;;4951965;28;20433;-68
2023/07/03 10:12:10;;;;;;;1.70;1.37;;;22.50;70.00;;;;;;4949181;28;21089;-72
2023/07/03 10:14:52;;;;;;;8.80;1.53;;;22.50;70.90;;;;;;4931918;29;20515;-69
2023/07/03 10:17:26;;;;;;;16.63;2.20;;;22.60;70.20;;;;;;4972396;23;20909;-88
2023/07/03 10:20:24;;;;;;;2.13;1.97;;;22.70;70.30;;;;;;4976893;28;20471;-89
2023/07/03 10:22:55;;;;;;;1.27;1.20;;;22.80;70.50;;;;;;4971375;28;20417;-87
2023/07/03 10:25:33;;;;;;;1.93;1.50;;;22.90;69.50;;;;;;4972563;28;20816;-90
2023/07/03 10:28:06;;;;;;;1.20;1.10;;;22.90;69.50;;;;;;4956287;29;20411;-89
2023/07/03 10:30:34;;;;;;;1.17;1.07;;;23.00;69.60;;;;;;4967923;23;20501;-71
2023/07/03 10:33:03;;;;;;;1.70;1.60;;;23.00;69.10;;;;;;4948868;28;20458;-76
2023/07/03 10:35:32;;;;;;;2.00;1.70;;;23.00;69.70;;;;;;4948591;28;20430;-70
2023/07/03 10:38:21;;;;;;;1.00;0.93;;;23.10;69.30;;;;;;4952604;28;20598;-72
2023/07/03 10:40:56;;;;;;;1.60;1.33;;;23.10;68.20;;;;;;4950301;28;20445;-70
2023/07/03 10:43:25;;;;;;;1.40;1.30;;;23.20;69.70;;;;;;4948848;28;20914;-69
2023/07/03 10:45:51;;;;;;;0.90;0.90;;;23.30;67.50;;;;;;4949557;28;20815;-68
2023/07/03 10:48:26;;;;;;;10.53;1.90;;;23.30;67.30;;;;;;4947646;28;20442;-70
2023/07/03 10:51:37;;;;;;;6.13;1.97;;;23.20;68.30;;;;;;4950329;28;20524;-79
2023/07/03 10:54:13;;;;;;;2.30;1.93;;;23.20;67.70;;;;;;4943745;28;20950;-72
2023/07/03 10:56:44;;;;;;;1.63;1.50;;;23.30;68.20;;;;;;4937682;28;20489;-72
2023/07/03 10:59:34;;;;;;;1.67;1.10;;;23.40;69.10;;;;;;4959720;28;20462;-81
2023/07/03 11:02:23;;;;;;;5.13;2.03;;;23.20;67.10;;;;;;4953748;28;20565;-86
2023/07/03 11:04:55;;;;;;;4.50;1.60;;;23.30;68.30;;;;;;4958087;28;20430;-70
2023/07/03 11:07:51;;;;;;;3.53;1.97;;;23.30;67.70;;;;;;4958754;28;20429;-71
2023/07/03 11:10:23;;;;;;;1.00;0.90;;;23.40;68.00;;;;;;4958116;28;20503;-70
2023/07/03 11:13:10;;;;;;;2.57;1.83;;;23.40;67.50;;;;;;4965550;28;20482;-72
2023/07/03 11:16:01;;;;;;;1.90;1.23;;;23.40;68.50;;;;;;4967656;28;20426;-73
2023/07/03 11:19:04;;;;;;;1.20;1.10;;;23.40;67.90;;;;;;4969660;28;20556;-69
2023/07/03 11:21:47;;;;;;;1.63;1.30;;;23.30;67.50;;;;;;4962686;28;20493;-74
2023/07/03 11:24:28;;;;;;;3.60;1.60;;;23.30;68.30;;;;;;4961928;28;20422;-72
2023/07/03 11:27:16;;;;;;;1.10;1.00;;;23.20;67.70;;;;;;4964259;28;20417;-75
2023/07/03 11:29:42;;;;;;;2.37;1.40;;;23.10;67.90;;;;;;4955131;28;20525;-73
2023/07/03 11:32:09;;;;;;;2.00;1.90;;;23.00;68.10;;;;;;4953812;28;20454;-72
2023/07/03 11:34:38;;;;;;;3.53;1.57;;;23.10;69.00;;;;;;4962150;28;20468;-77
2023/07/03 11:37:33;;;;;;;1.87;1.80;;;23.10;69.60;;;;;;4956925;28;20480;-75
2023/07/03 11:40:38;;;;;;;12.43;2.90;;;23.20;68.90;;;;;;4967163;28;20415;-75
2023/07/03 11:43:33;;;;;;;3.80;1.70;;;23.40;69.20;;;;;;4954476;28;20427;-71
2023/07/03 11:45:58;;;;;;;1.27;1.27;;;23.60;68.50;;;;;;4962098;28;20469;-74
2023/07/03 11:48:28;;;;;;;7.23;1.40;;;23.80;68.60;;;;;;4955249;28;20462;-78
2023/07/03 11:50:59;;;;;;;2.60;1.40;;;24.00;68.50;;;;;;4955972;28;20202;-70
2023/07/03 11:53:35;;;;;;;3.63;2.10;;;24.20;69.20;;;;;;4960797;28;20470;-75
2023/07/03 11:56:03;;;;;;;4.03;1.43;;;24.30;67.00;;;;;;4962622;28;20452;-68
2023/07/03 11:58:32;;;;;;;1.73;1.43;;;24.20;66.40;;;;;;4954335;28;20445;-69
2023/07/03 12:01:21;;;;;;;20.47;2.17;;;23.90;66.60;;;;;;4955676;28;20446;-72
2023/07/03 12:03:52;;;;;;;1.20;1.13;;;23.90;66.70;;;;;;4956091;28;20464;-70
2023/07/03 12:06:39;;;;;;;1.50;1.40;;;23.80;66.90;;;;;;4955168;28;20419;-74
2023/07/03 12:09:26;;;;;;;2.00;1.37;;;23.70;67.70;;;;;;4951549;28;20426;-71
2023/07/03 12:11:59;;;;;;;2.50;1.60;;;23.90;68.60;;;;;;4952853;28;20587;-74
2023/07/03 12:14:39;;;;;;;3.40;1.53;;;24.00;68.50;;;;;;4951443;28;20470;-82
2023/07/03 12:17:20;;;;;;;4.30;1.37;;;24.20;67.80;;;;;;4951228;28;20622;-72
2023/07/03 12:19:48;;;;;;;1.60;1.50;;;24.10;67.60;;;;;;4951949;28;20427;-76
2023/07/03 12:22:19;;;;;;;4.87;1.70;;;24.00;67.50;;;;;;4959205;28;20450;-75
2023/07/03 12:24:45;;;;;;;2.63;1.60;;;23.90;68.80;;;;;;4949321;28;20532;-77
2023/07/03 12:27:11;;;;;;;1.43;1.33;;;23.80;68.60;;;;;;4951893;28;20426;-76
2023/07/03 12:29:48;;;;;;;1.93;1.63;;;23.80;68.10;;;;;;4958035;28;20477;-70
2023/07/03 12:32:23;;;;;;;3.43;2.20;;;23.80;68.40;;;;;;4951897;28;20445;-72
2023/07/03 12:34:49;;;;;;;1.40;1.30;;;23.90;67.80;;;;;;4952145;28;20474;-70
2023/07/03 12:37:17;;;;;;;2.20;1.83;;;24.00;67.70;;;;;;4958575;28;20852;-68
2023/07/03 12:39:45;;;;;;;1.57;1.50;;;24.10;67.90;;;;;;4963562;28;20781;-67
2023/07/03 12:42:22;;;;;;;6.90;1.80;;;24.10;66.70;;;;;;4966081;28;20537;-78
2023/07/03 12:44:48;;;;;;;2.13;1.30;;;24.00;66.10;;;;;;4952856;28;20430;-73
2023/07/03 12:47:16;;;;;;;1.60;1.50;;;24.10;67.20;;;;;;4955396;28;20433;-70
2023/07/03 12:49:55;;;;;;;3.00;2.27;;;24.20;67.50;;;;;;4963751;28;20285;-73
2023/07/03 12:52:23;;;;;;;2.37;1.43;;;24.40;66.50;;;;;;4951130;28;20454;-73
2023/07/03 12:54:50;;;;;;;2.13;2.00;;;24.60;66.20;;;;;;4954067;28;20459;-71
2023/07/03 12:57:15;;;;;;;1.47;1.10;;;24.50;64.70;;;;;;4950678;28;20439;-69
2023/07/03 12:59:47;;;;;;;5.63;2.07;;;24.60;66.20;;;;;;4949754;28;20915;-72
2023/07/03 13:02:19;;;;;;;1.53;1.20;;;24.60;65.10;;;;;;4946662;28;20483;-74
2023/07/03 13:04:51;;;;;;;1.70;1.60;;;24.70;65.30;;;;;;4957394;28;20880;-83
2023/07/03 13:07:18;;;;;;;1.50;1.20;;;24.60;65.00;;;;;;4949692;28;20978;-76
2023/07/03 13:09:44;;;;;;;1.50;1.40;;;24.30;64.80;;;;;;4949575;28;20429;-75
2023/07/03 13:12:20;;;;;;;5.27;1.90;;;24.10;65.70;;;;;;4949422;28;20463;-74
2023/07/03 13:15:00;;;;;;;1.63;1.63;;;24.10;66.20;;;;;;4950962;28;20242;-72
2023/07/03 13:17:30;;;;;;;3.33;1.87;;;24.00;65.80;;;;;;4946308;28;20436;-71
2023/07/03 13:20:27;;;;;;;2.63;1.23;;;24.10;66.50;;;;;;4950973;28;20442;-77
2023/07/03 13:23:08;;;;;;;4.07;1.70;;;24.20;65.70;;;;;;4948165;28;20420;-72
2023/07/03 13:25:49;;;;;;;2.00;1.13;;;24.20;65.20;;;;;;4951211;28;20460;-76
2023/07/03 13:28:24;;;;;;;1.40;1.30;;;24.00;66.00;;;;;;4939058;28;20429;-67
2023/07/03 13:31:02;;;;;;;3.23;1.77;;;23.90;66.90;;;;;;4949560;28;20458;-68
2023/07/03 13:33:28;;;;;;;2.37;1.73;;;23.70;66.60;;;;;;4949014;28;20467;-65
2023/07/03 13:35:53;;;;;;;3.83;2.40;;;23.80;67.90;;;;;;4939668;28;20431;-80
2023/07/03 13:38:22;;;;;;;1.73;1.17;;;23.80;66.80;;;;;;4956785;28;20175;-71
2023/07/03 13:40:50;;;;;;;11.50;2.33;;;23.80;67.50;;;;;;4948487;28;20201;-72
2023/07/03 13:43:31;;;;;;;2.27;1.50;;;23.80;67.00;;;;;;4953956;28;20427;-72
2023/07/03 13:45:57;;;;;;;5.00;2.20;;;23.70;68.00;;;;;;4950094;28;20443;-69
2023/07/03 13:48:24;;;;;;;1.63;1.37;;;23.60;67.70;;;;;;4950717;28;20426;-72
2023/07/03 13:50:55;;;;;;;2.90;2.47;;;23.50;67.80;;;;;;4958127;28;20740;-69
2023/07/03 13:53:22;;;;;;;3.33;1.90;;;23.30;67.50;;;;;;4951193;28;20544;-72
2023/07/03 13:55:49;;;;;;;11.97;2.17;;;23.20;68.10;;;;;;4955794;28;20505;-72
2023/07/03 13:58:14;;;;;;;7.27;1.77;;;23.30;69.50;;;;;;4947234;28;20514;-70
2023/07/03 14:00:40;;;;;;;1.00;0.90;;;23.50;69.00;;;;;;4939444;28;20526;-72
2023/07/03 14:03:05;;;;;;;1.87;1.50;;;23.60;68.40;;;;;;4953297;28;20648;-76
2023/07/03 14:05:31;;;;;;;2.97;1.90;;;23.60;68.50;;;;;;4949760;28;20194;-71
2023/07/03 14:07:57;;;;;;;1.50;1.30;;;23.50;68.80;;;;;;4944112;28;20183;-71
2023/07/03 14:10:23;;;;;;;1.63;1.53;;;23.30;69.20;;;;;;4949491;28;20193;-77
2023/07/03 14:12:48;;;;;;;2.53;1.67;;;23.30;69.60;;;;;;4956020;28;20424;-73
2023/07/03 14:15:24;;;;;;;2.70;2.03;;;23.50;69.30;;;;;;4949010;28;20274;-73
2023/07/03 14:17:53;;;;;;;2.00;1.53;;;23.60;69.80;;;;;;4947671;28;20179;-71
2023/07/03 14:20:20;;;;;;;13.77;2.50;;;23.60;69.70;;;;;;4944584;28;20435;-72
2023/07/03 14:22:48;;;;;;;1.63;1.50;;;23.50;68.90;;;;;;4953274;28;20430;-74
2023/07/03 14:25:16;;;;;;;3.77;2.60;;;23.40;69.90;;;;;;4949344;28;20800;-79
2023/07/03 14:27:45;;;;;;;3.50;2.50;;;23.20;70.00;;;;;;4926830;29;20508;-73
2023/07/03 14:30:15;;;;;;;1.77;1.20;;;23.20;70.10;;;;;;4931766;29;20474;-75
2023/07/03 14:32:42;;;;;;;2.00;1.20;;;23.10;70.30;;;;;;4953277;28;20433;-73
2023/07/03 14:35:09;;;;;;;2.30;1.73;;;23.20;70.60;;;;;;4955853;28;20470;-73
2023/07/03 14:37:36;;;;;;;2.27;1.90;;;23.30;70.50;;;;;;4946431;28;20522;-73
2023/07/03 14:40:03;;;;;;;4.33;3.00;;;23.30;70.10;;;;;;4948459;28;20505;-73
2023/07/03 14:42:29;;;;;;;1.40;1.30;;;23.20;70.50;;;;;;4948530;28;20804;-72
2023/07/03 14:44:55;;;;;;;3.60;1.37;;;23.20;70.60;;;;;;4960524;28;20426;-72
2023/07/03 14:47:20;;;;;;;2.30;1.70;;;23.20;70.70;;;;;;4948591;28;20792;-66
2023/07/03 14:49:46;;;;;;;1.40;1.30;;;23.20;70.90;;;;;;4955091;28;20214;-71
2023/07/03 14:52:14;;;;;;;3.70;1.90;;;23.00;70.70;;;;;;4952454;28;20260;-69
2023/07/03 14:54:40;;;;;;;2.30;1.87;;;23.00;71.10;;;;;;4946151;28;20811;-69
2023/07/03 14:57:06;;;;;;;1.40;1.30;;;22.90;71.50;;;;;;4948836;28;20454;-69
2023/07/03 14:59:31;;;;;;;2.20;1.57;;;22.90;71.10;;;;;;4948978;28;20419;-70
2023/07/03 15:01:57;;;;;;;8.73;2.07;;;22.90;70.40;;;;;;4945904;28;20202;-68
2023/07/03 15:04:22;;;;;;;2.30;2.00;;;22.90;70.30;;;;;;4947854;28;20190;-72
2023/07/03 15:06:48;;;;;;;2.73;2.13;;;22.90;69.90;;;;;;4946821;28;20179;-73
2023/07/03 15:09:15;;;;;;;5.37;1.40;;;22.80;70.10;;;;;;4957926;28;20556;-72
2023/07/03 15:11:40;;;;;;;4.70;2.30;;;22.80;70.00;;;;;;4948567;28;20279;-72
2023/07/03 15:14:08;;;;;;;2.77;2.10;;;22.80;71.00;;;;;;4959689;28;20512;-70
2023/07/03 15:16:34;;;;;;;1.60;1.50;;;22.90;70.80;;;;;;4951397;28;20179;-74
2023/07/03 15:19:07;;;;;;;15.23;2.80;;;23.00;71.00;;;;;;4954060;28;20423;-83
2023/07/03 15:21:39;;;;;;;2.10;1.80;;;23.20;70.20;;;;;;4950088;28;20572;-78
2023/07/03 15:24:06;;;;;;;3.63;2.43;;;23.20;70.00;;;;;;4948425;28;20430;-74
2023/07/03 15:26:32;;;;;;;3.40;2.13;;;23.20;69.60;;;;;;4957467;28;20457;-72
2023/07/03 15:28:58;;;;;;;2.40;1.60;;;23.20;69.80;;;;;;4949219;28;20997;-71
2023/07/03 15:31:26;;;;;;;2.60;2.30;;;23.20;70.10;;;;;;4955017;28;20975;-77
2023/07/03 15:33:52;;;;;;;3.43;2.60;;;23.30;69.70;;;;;;4949876;28;20463;-71
2023/07/03 15:36:18;;;;;;;2.63;1.90;;;23.40;69.60;;;;;;4957601;28;20764;-71
2023/07/03 15:38:43;;;;;;;2.67;1.53;;;23.30;69.40;;;;;;4959228;28;20431;-73
2023/07/03 15:41:09;;;;;;;2.83;2.70;;;23.20;69.10;;;;;;4954868;28;20270;-74
2023/07/03 15:43:35;;;;;;;1.57;1.47;;;23.00;69.40;;;;;;4956592;28;20666;-70
2023/07/03 15:46:08;;;;;;;1.77;1.60;;;22.90;70.10;;;;;;4957327;28;20707;-74
2023/07/03 15:48:35;;;;;;;4.60;1.63;;;22.90;70.30;;;;;;4960249;28;20222;-77
2023/07/03 15:51:02;;;;;;;2.67;1.67;;;22.80;70.10;;;;;;4951919;28;20461;-76
2023/07/03 15:53:29;;;;;;;3.20;1.70;;;22.70;70.10;;;;;;4951674;28;20556;-74
2023/07/03 15:56:05;;;;;;;1.63;1.50;;;22.80;70.40;;;;;;4953057;28;20439;-76
2023/07/03 15:58:40;;;;;;;1.57;1.50;;;22.80;70.00;;;;;;4945930;28;20429;-73
2023/07/03 16:01:11;;;;;;;1.40;1.30;;;22.80;69.90;;;;;;4965924;28;20446;-76
2023/07/03 16:03:37;;;;;;;2.70;2.20;;;22.80;70.70;;;;;;4958025;28;20438;-74
2023/07/03 16:06:05;;;;;;;4.50;1.60;;;22.70;70.20;;;;;;4963978;28;20452;-76
2023/07/03 16:08:32;;;;;;;1.53;1.47;;;22.70;70.50;;;;;;4951796;28;20176;-72
2023/07/03 16:10:58;;;;;;;1.10;1.10;;;22.60;70.80;;;;;;4945479;28;20450;-74
2023/07/03 16:13:26;;;;;;;5.13;2.93;;;22.60;71.30;;;;;;4949738;28;20909;-75
2023/07/03 16:15:53;;;;;;;5.43;2.37;;;22.50;71.30;;;;;;4949933;28;20183;-74
2023/07/03 16:18:22;;;;;;;4.13;2.37;;;22.50;70.80;;;;;;4982940;23;20504;-85
2023/07/03 16:20:55;;;;;;;2.70;1.77;;;22.40;71.40;;;;;;4970574;28;20413;-88
2023/07/03 16:23:20;;;;;;;11.43;2.37;;;22.40;71.40;;;;;;4974725;28;20491;-87
2023/07/03 16:25:50;;;;;;;2.27;2.07;;;22.40;71.50;;;;;;4975595;28;20483;-85
2023/07/03 16:28:16;;;;;;;2.40;2.20;;;22.40;71.80;;;;;;4963620;28;20230;-85
2023/07/03 16:30:42;;;;;;;5.20;2.93;;;22.30;72.10;;;;;;4968360;23;20940;-67
2023/07/03 16:33:07;;;;;;;1.77;1.70;;;22.30;72.40;;;;;;4952967;28;20529;-67
2023/07/03 16:35:33;;;;;;;3.23;1.93;;;22.20;72.50;;;;;;4961086;28;20650;-67
2023/07/03 16:38:02;;;;;;;2.60;1.20;;;22.30;72.80;;;;;;4969186;28;20420;-69
2023/07/03 16:40:30;;;;;;;2.63;1.57;;;22.20;72.30;;;;;;4940432;28;20293;-67
2023/07/03 16:42:56;;;;;;;1.83;1.33;;;22.20;73.20;;;;;;4958741;28;20457;-67
2023/07/03 16:45:22;;;;;;;4.17;1.70;;;22.20;73.00;;;;;;4954450;28;20422;-67
2023/07/03 16:47:48;;;;;;;1.60;1.50;;;22.20;73.00;;;;;;4956017;28;20946;-67
2023/07/03 16:50:13;;;;;;;2.00;1.90;;;22.20;72.90;;;;;;4970706;28;20593;-68
2023/07/03 16:52:39;;;;;;;4.23;2.27;;;22.20;73.00;;;;;;4952764;28;20179;-67
2023/07/03 16:55:05;;;;;;;3.00;2.00;;;22.20;73.10;;;;;;4951621;28;20214;-68
2023/07/03 16:57:30;;;;;;;3.43;1.80;;;22.20;72.90;;;;;;4964169;28;20184;-68
2023/07/03 16:59:56;;;;;;;2.23;2.10;;;22.20;73.00;;;;;;4946858;28;20180;-68